sensor_id;sensor_type;location;lat;lon;timestamp;P1;durP1;ratioP1;P2;durP2;ratioP2
65871;SDS011;52653;50.080;21.992;2023-09-19T00:00:42;12.90;;;9.60;;
65871;SDS011;52653;50.080;21.992;2023-09-19T00:03:36;13.00;;;9.50;;
65871;SDS011;52653;50.080;21.992;2023-09-19T00:06:12;12.20;;;10.00;;
65871;SDS011;52653;50.080;21.992;2023-09-19T00:08:45;12.80;;;10.20;;
65871;SDS011;52653;50.080;21.992;2023-09-19T00:11:17;10.70;;;8.70;;
65871;SDS011;52653;50.080;21.992;2023-09-19T00:13:49;13.40;;;9.60;;
65871;SDS011;52653;50.080;21.992;2023-09-19T00:16:22;12.20;;;9.50;;
65871;SDS011;52653;50.080;21.992;2023-09-19T00:18:57;14.80;;;9.90;;
65871;SDS011;52653;50.080;21.992;2023-09-19T00:21:34;10.80;;;9.00;;
65871;SDS011;52653;50.080;21.992;2023-09-19T00:24:08;12.30;;;9.30;;
65871;SDS011;52653;50.080;21.992;2023-09-19T00:26:41;14.00;;;10.50;;
65871;SDS011;52653;50.080;21.992;2023-09-19T00:29:16;13.00;;;10.10;;
65871;SDS011;52653;50.080;21.992;2023-09-19T00:31:51;14.00;;;10.40;;
65871;SDS011;52653;50.080;21.992;2023-09-19T00:34:23;13.40;;;9.50;;
65871;SDS011;52653;50.080;21.992;2023-09-19T00:36:57;13.20;;;10.20;;
65871;SDS011;52653;50.080;21.992;2023-09-19T00:39:30;13.60;;;9.90;;
65871;SDS011;52653;50.080;21.992;2023-09-19T00:42:02;13.50;;;10.50;;
65871;SDS011;52653;50.080;21.992;2023-09-19T00:44:37;15.20;;;11.50;;
65871;SDS011;52653;50.080;21.992;2023-09-19T00:47:12;13.70;;;10.10;;
65871;SDS011;52653;50.080;21.992;2023-09-19T00:49:47;12.90;;;10.10;;
65871;SDS011;52653;50.080;21.992;2023-09-19T00:52:20;14.60;;;10.40;;
65871;SDS011;52653;50.080;21.992;2023-09-19T00:54:53;13.40;;;9.90;;
65871;SDS011;52653;50.080;21.992;2023-09-19T00:57:27;13.50;;;10.60;;
65871;SDS011;52653;50.080;21.992;2023-09-19T01:00:03;14.50;;;10.90;;
65871;SDS011;52653;50.080;21.992;2023-09-19T01:02:40;17.50;;;11.00;;
65871;SDS011;52653;50.080;21.992;2023-09-19T01:05:15;12.20;;;10.10;;
65871;SDS011;52653;50.080;21.992;2023-09-19T01:07:48;14.20;;;10.50;;
65871;SDS011;52653;50.080;21.992;2023-09-19T01:10:23;12.00;;;9.70;;
65871;SDS011;52653;50.080;21.992;2023-09-19T01:12:59;12.40;;;10.30;;
65871;SDS011;52653;50.080;21.992;2023-09-19T01:15:43;13.10;;;9.70;;
65871;SDS011;52653;50.080;21.992;2023-09-19T01:18:33;13.30;;;10.10;;
65871;SDS011;52653;50.080;21.992;2023-09-19T01:21:15;13.00;;;10.00;;
65871;SDS011;52653;50.080;21.992;2023-09-19T01:27:20;13.70;;;10.00;;
65871;SDS011;52653;50.080;21.992;2023-09-19T01:30:10;12.70;;;10.00;;
65871;SDS011;52653;50.080;21.992;2023-09-19T01:35:27;13.00;;;9.30;;
65871;SDS011;52653;50.080;21.992;2023-09-19T01:37:59;12.70;;;10.20;;
65871;SDS011;52653;50.080;21.992;2023-09-19T01:40:32;14.80;;;10.40;;
65871;SDS011;52653;50.080;21.992;2023-09-19T01:43:15;13.30;;;10.10;;
65871;SDS011;52653;50.080;21.992;2023-09-19T01:45:56;13.80;;;10.30;;
65871;SDS011;52653;50.080;21.992;2023-09-19T01:48:35;13.50;;;10.70;;
65871;SDS011;52653;50.080;21.992;2023-09-19T01:51:18;13.70;;;10.70;;
65871;SDS011;52653;50.080;21.992;2023-09-19T01:54:02;14.50;;;10.40;;
65871;SDS011;52653;50.080;21.992;2023-09-19T01:56:48;13.60;;;10.20;;
65871;SDS011;52653;50.080;21.992;2023-09-19T01:59:34;14.00;;;9.90;;
65871;SDS011;52653;50.080;21.992;2023-09-19T02:02:12;13.50;;;10.20;;
65871;SDS011;52653;50.080;21.992;2023-09-19T02:04:48;13.70;;;10.30;;
65871;SDS011;52653;50.080;21.992;2023-09-19T02:07:22;13.90;;;10.20;;
65871;SDS011;52653;50.080;21.992;2023-09-19T02:09:58;14.50;;;10.60;;
65871;SDS011;52653;50.080;21.992;2023-09-19T02:12:31;15.20;;;10.30;;
65871;SDS011;52653;50.080;21.992;2023-09-19T02:15:05;13.60;;;10.30;;
65871;SDS011;52653;50.080;21.992;2023-09-19T02:17:39;14.10;;;10.10;;
65871;SDS011;52653;50.080;21.992;2023-09-19T02:20:12;14.80;;;10.90;;
65871;SDS011;52653;50.080;21.992;2023-09-19T02:22:47;13.90;;;9.40;;
65871;SDS011;52653;50.080;21.992;2023-09-19T02:25:21;14.20;;;9.50;;
65871;SDS011;52653;50.080;21.992;2023-09-19T02:27:56;14.40;;;10.10;;
65871;SDS011;52653;50.080;21.992;2023-09-19T02:30:30;14.70;;;10.40;;
65871;SDS011;52653;50.080;21.992;2023-09-19T02:33:04;12.50;;;10.40;;
65871;SDS011;52653;50.080;21.992;2023-09-19T02:35:38;13.30;;;10.40;;
65871;SDS011;52653;50.080;21.992;2023-09-19T02:38:12;13.80;;;10.10;;
65871;SDS011;52653;50.080;21.992;2023-09-19T02:40:47;12.80;;;10.60;;
65871;SDS011;52653;50.080;21.992;2023-09-19T02:43:20;12.60;;;10.60;;
65871;SDS011;52653;50.080;21.992;2023-09-19T02:45:53;13.20;;;10.40;;
65871;SDS011;52653;50.080;21.992;2023-09-19T02:48:27;14.70;;;11.40;;
65871;SDS011;52653;50.080;21.992;2023-09-19T02:51:01;14.60;;;11.20;;
65871;SDS011;52653;50.080;21.992;2023-09-19T02:53:34;13.00;;;10.70;;
65871;SDS011;52653;50.080;21.992;2023-09-19T02:56:07;14.40;;;10.90;;
65871;SDS011;52653;50.080;21.992;2023-09-19T02:58:43;13.00;;;10.70;;
65871;SDS011;52653;50.080;21.992;2023-09-19T03:01:19;13.10;;;9.90;;
65871;SDS011;52653;50.080;21.992;2023-09-19T03:03:52;12.70;;;10.10;;
65871;SDS011;52653;50.080;21.992;2023-09-19T03:06:24;11.40;;;9.30;;
65871;SDS011;52653;50.080;21.992;2023-09-19T03:09:00;11.70;;;9.50;;
65871;SDS011;52653;50.080;21.992;2023-09-19T03:11:35;11.30;;;9.40;;
65871;SDS011;52653;50.080;21.992;2023-09-19T03:14:09;11.80;;;9.70;;
65871;SDS011;52653;50.080;21.992;2023-09-19T03:16:43;12.20;;;9.10;;
65871;SDS011;52653;50.080;21.992;2023-09-19T03:19:16;13.40;;;9.20;;
65871;SDS011;52653;50.080;21.992;2023-09-19T03:21:50;12.00;;;8.90;;
65871;SDS011;52653;50.080;21.992;2023-09-19T03:27:20;12.10;;;8.90;;
65871;SDS011;52653;50.080;21.992;2023-09-19T03:29:55;13.30;;;9.00;;
65871;SDS011;52653;50.080;21.992;2023-09-19T03:32:28;11.80;;;8.90;;
65871;SDS011;52653;50.080;21.992;2023-09-19T03:35:01;11.00;;;9.00;;
65871;SDS011;52653;50.080;21.992;2023-09-19T03:37:36;11.00;;;8.90;;
65871;SDS011;52653;50.080;21.992;2023-09-19T03:40:10;13.40;;;8.60;;
65871;SDS011;52653;50.080;21.992;2023-09-19T03:42:45;10.30;;;8.90;;
65871;SDS011;52653;50.080;21.992;2023-09-19T03:45:18;11.60;;;9.20;;
65871;SDS011;52653;50.080;21.992;2023-09-19T03:47:53;11.60;;;9.70;;
65871;SDS011;52653;50.080;21.992;2023-09-19T03:50:27;12.30;;;9.40;;
65871;SDS011;52653;50.080;21.992;2023-09-19T03:53:00;14.40;;;9.90;;
65871;SDS011;52653;50.080;21.992;2023-09-19T03:55:33;13.70;;;9.60;;
65871;SDS011;52653;50.080;21.992;2023-09-19T03:58:08;12.50;;;9.60;;
65871;SDS011;52653;50.080;21.992;2023-09-19T04:00:41;14.50;;;9.70;;
65871;SDS011;52653;50.080;21.992;2023-09-19T04:03:13;12.00;;;10.10;;
65871;SDS011;52653;50.080;21.992;2023-09-19T04:05:50;13.00;;;10.20;;
65871;SDS011;52653;50.080;21.992;2023-09-19T04:08:23;13.50;;;10.70;;
65871;SDS011;52653;50.080;21.992;2023-09-19T04:10:55;13.30;;;10.20;;
65871;SDS011;52653;50.080;21.992;2023-09-19T04:13:28;12.40;;;10.30;;
65871;SDS011;52653;50.080;21.992;2023-09-19T04:16:01;13.90;;;10.30;;
65871;SDS011;52653;50.080;21.992;2023-09-19T04:18:36;13.40;;;10.30;;
65871;SDS011;52653;50.080;21.992;2023-09-19T04:21:10;12.60;;;10.40;;
65871;SDS011;52653;50.080;21.992;2023-09-19T04:23:46;14.20;;;10.10;;
65871;SDS011;52653;50.080;21.992;2023-09-19T04:26:18;10.90;;;9.70;;
65871;SDS011;52653;50.080;21.992;2023-09-19T04:28:52;12.10;;;10.00;;
65871;SDS011;52653;50.080;21.992;2023-09-19T04:31:29;12.50;;;10.00;;
65871;SDS011;52653;50.080;21.992;2023-09-19T04:34:05;12.20;;;10.20;;
65871;SDS011;52653;50.080;21.992;2023-09-19T04:36:42;12.10;;;10.10;;
65871;SDS011;52653;50.080;21.992;2023-09-19T04:39:15;11.70;;;10.50;;
65871;SDS011;52653;50.080;21.992;2023-09-19T04:41:48;13.20;;;10.10;;
65871;SDS011;52653;50.080;21.992;2023-09-19T04:44:31;11.70;;;10.00;;
65871;SDS011;52653;50.080;21.992;2023-09-19T04:47:07;13.90;;;11.00;;
65871;SDS011;52653;50.080;21.992;2023-09-19T04:49:41;13.60;;;9.80;;
65871;SDS011;52653;50.080;21.992;2023-09-19T04:52:14;12.60;;;9.70;;
65871;SDS011;52653;50.080;21.992;2023-09-19T04:54:49;12.50;;;9.90;;
65871;SDS011;52653;50.080;21.992;2023-09-19T04:57:26;12.90;;;10.00;;
65871;SDS011;52653;50.080;21.992;2023-09-19T05:00:01;12.70;;;10.30;;
65871;SDS011;52653;50.080;21.992;2023-09-19T05:02:36;12.10;;;9.90;;
65871;SDS011;52653;50.080;21.992;2023-09-19T05:05:09;11.10;;;9.50;;
65871;SDS011;52653;50.080;21.992;2023-09-19T05:08:03;10.90;;;9.80;;
65871;SDS011;52653;50.080;21.992;2023-09-19T05:10:41;13.00;;;10.40;;
65871;SDS011;52653;50.080;21.992;2023-09-19T05:13:14;12.80;;;10.20;;
65871;SDS011;52653;50.080;21.992;2023-09-19T05:15:47;14.10;;;10.70;;
65871;SDS011;52653;50.080;21.992;2023-09-19T05:18:22;12.00;;;10.10;;
65871;SDS011;52653;50.080;21.992;2023-09-19T05:20:55;11.40;;;10.20;;
65871;SDS011;52653;50.080;21.992;2023-09-19T05:23:31;11.90;;;9.80;;
65871;SDS011;52653;50.080;21.992;2023-09-19T05:26:04;11.00;;;9.50;;
65871;SDS011;52653;50.080;21.992;2023-09-19T05:28:36;12.80;;;9.70;;
65871;SDS011;52653;50.080;21.992;2023-09-19T05:31:09;10.80;;;9.30;;
65871;SDS011;52653;50.080;21.992;2023-09-19T05:33:42;10.80;;;9.60;;
65871;SDS011;52653;50.080;21.992;2023-09-19T05:36:14;11.60;;;9.80;;
65871;SDS011;52653;50.080;21.992;2023-09-19T05:38:47;11.50;;;9.60;;
65871;SDS011;52653;50.080;21.992;2023-09-19T05:41:23;10.30;;;9.10;;
65871;SDS011;52653;50.080;21.992;2023-09-19T05:43:56;10.90;;;9.70;;
65871;SDS011;52653;50.080;21.992;2023-09-19T05:46:32;12.90;;;9.50;;
65871;SDS011;52653;50.080;21.992;2023-09-19T05:49:05;12.40;;;9.60;;
65871;SDS011;52653;50.080;21.992;2023-09-19T05:51:38;11.80;;;9.40;;
65871;SDS011;52653;50.080;21.992;2023-09-19T05:54:10;10.50;;;8.40;;
65871;SDS011;52653;50.080;21.992;2023-09-19T05:56:43;9.90;;;8.60;;
65871;SDS011;52653;50.080;21.992;2023-09-19T05:59:17;10.50;;;8.60;;
65871;SDS011;52653;50.080;21.992;2023-09-19T06:01:53;10.10;;;8.60;;
65871;SDS011;52653;50.080;21.992;2023-09-19T06:04:26;11.90;;;8.20;;
65871;SDS011;52653;50.080;21.992;2023-09-19T06:07:05;12.10;;;8.50;;
65871;SDS011;52653;50.080;21.992;2023-09-19T06:09:38;11.60;;;8.80;;
65871;SDS011;52653;50.080;21.992;2023-09-19T06:12:10;9.80;;;8.20;;
65871;SDS011;52653;50.080;21.992;2023-09-19T06:14:45;10.80;;;8.20;;
65871;SDS011;52653;50.080;21.992;2023-09-19T06:17:19;11.80;;;8.60;;
65871;SDS011;52653;50.080;21.992;2023-09-19T06:19:52;10.20;;;8.30;;
65871;SDS011;52653;50.080;21.992;2023-09-19T06:22:25;10.40;;;8.30;;
65871;SDS011;52653;50.080;21.992;2023-09-19T06:24:59;9.70;;;8.20;;
65871;SDS011;52653;50.080;21.992;2023-09-19T06:27:36;10.40;;;8.10;;
65871;SDS011;52653;50.080;21.992;2023-09-19T06:30:11;9.10;;;8.10;;
65871;SDS011;52653;50.080;21.992;2023-09-19T06:32:44;11.70;;;8.60;;
65871;SDS011;52653;50.080;21.992;2023-09-19T06:35:19;10.00;;;8.30;;
65871;SDS011;52653;50.080;21.992;2023-09-19T06:37:52;9.50;;;8.20;;
65871;SDS011;52653;50.080;21.992;2023-09-19T06:40:28;9.30;;;8.00;;
65871;SDS011;52653;50.080;21.992;2023-09-19T06:43:04;10.50;;;8.30;;
65871;SDS011;52653;50.080;21.992;2023-09-19T06:45:38;11.10;;;8.60;;
65871;SDS011;52653;50.080;21.992;2023-09-19T06:48:11;10.20;;;8.60;;
65871;SDS011;52653;50.080;21.992;2023-09-19T06:50:45;12.10;;;8.70;;
65871;SDS011;52653;50.080;21.992;2023-09-19T06:53:21;11.10;;;9.10;;
65871;SDS011;52653;50.080;21.992;2023-09-19T06:55:54;9.50;;;8.50;;
65871;SDS011;52653;50.080;21.992;2023-09-19T06:58:26;10.10;;;8.70;;
65871;SDS011;52653;50.080;21.992;2023-09-19T07:01:01;10.60;;;8.50;;
65871;SDS011;52653;50.080;21.992;2023-09-19T07:03:34;10.00;;;8.20;;
65871;SDS011;52653;50.080;21.992;2023-09-19T07:06:08;10.80;;;8.90;;
65871;SDS011;52653;50.080;21.992;2023-09-19T07:08:40;11.30;;;8.50;;
65871;SDS011;52653;50.080;21.992;2023-09-19T07:11:14;10.30;;;8.10;;
65871;SDS011;52653;50.080;21.992;2023-09-19T07:13:47;10.90;;;8.50;;
65871;SDS011;52653;50.080;21.992;2023-09-19T07:16:20;10.00;;;7.50;;
65871;SDS011;52653;50.080;21.992;2023-09-19T07:19:01;9.80;;;8.00;;
65871;SDS011;52653;50.080;21.992;2023-09-19T07:21:34;9.80;;;7.20;;
65871;SDS011;52653;50.080;21.992;2023-09-19T07:24:08;11.00;;;7.40;;
65871;SDS011;52653;50.080;21.992;2023-09-19T07:26:41;9.10;;;6.90;;
65871;SDS011;52653;50.080;21.992;2023-09-19T07:29:13;7.70;;;6.30;;
65871;SDS011;52653;50.080;21.992;2023-09-19T07:31:49;7.90;;;5.90;;
65871;SDS011;52653;50.080;21.992;2023-09-19T07:34:22;7.80;;;5.90;;
65871;SDS011;52653;50.080;21.992;2023-09-19T07:36:55;8.80;;;5.70;;
65871;SDS011;52653;50.080;21.992;2023-09-19T07:39:29;7.90;;;5.00;;
65871;SDS011;52653;50.080;21.992;2023-09-19T07:42:06;9.40;;;5.60;;
65871;SDS011;52653;50.080;21.992;2023-09-19T07:44:41;7.50;;;5.90;;
65871;SDS011;52653;50.080;21.992;2023-09-19T07:47:17;7.80;;;6.10;;
65871;SDS011;52653;50.080;21.992;2023-09-19T07:49:50;8.70;;;6.00;;
65871;SDS011;52653;50.080;21.992;2023-09-19T07:52:22;7.70;;;5.80;;
65871;SDS011;52653;50.080;21.992;2023-09-19T07:54:59;6.90;;;5.60;;
65871;SDS011;52653;50.080;21.992;2023-09-19T07:57:38;7.30;;;6.30;;
65871;SDS011;52653;50.080;21.992;2023-09-19T08:00:12;8.80;;;6.40;;
65871;SDS011;52653;50.080;21.992;2023-09-19T08:02:50;7.90;;;6.20;;
65871;SDS011;52653;50.080;21.992;2023-09-19T08:05:32;9.30;;;6.70;;
65871;SDS011;52653;50.080;21.992;2023-09-19T08:08:06;7.70;;;6.50;;
65871;SDS011;52653;50.080;21.992;2023-09-19T08:10:39;9.00;;;6.80;;
65871;SDS011;52653;50.080;21.992;2023-09-19T08:13:15;9.10;;;6.90;;
65871;SDS011;52653;50.080;21.992;2023-09-19T08:15:48;9.20;;;7.70;;
65871;SDS011;52653;50.080;21.992;2023-09-19T08:18:23;9.40;;;7.30;;
65871;SDS011;52653;50.080;21.992;2023-09-19T08:20:59;9.40;;;7.60;;
65871;SDS011;52653;50.080;21.992;2023-09-19T08:23:32;9.90;;;8.40;;
65871;SDS011;52653;50.080;21.992;2023-09-19T08:26:05;8.90;;;7.70;;
65871;SDS011;52653;50.080;21.992;2023-09-19T08:28:41;11.90;;;8.30;;
65871;SDS011;52653;50.080;21.992;2023-09-19T08:31:14;10.50;;;8.70;;
65871;SDS011;52653;50.080;21.992;2023-09-19T08:33:47;11.30;;;8.60;;
65871;SDS011;52653;50.080;21.992;2023-09-19T08:36:22;11.80;;;8.50;;
65871;SDS011;52653;50.080;21.992;2023-09-19T08:38:55;9.70;;;8.60;;
65871;SDS011;52653;50.080;21.992;2023-09-19T08:41:29;9.60;;;8.40;;
65871;SDS011;52653;50.080;21.992;2023-09-19T08:44:02;12.60;;;8.90;;
65871;SDS011;52653;50.080;21.992;2023-09-19T08:46:37;11.50;;;8.80;;
65871;SDS011;52653;50.080;21.992;2023-09-19T08:49:15;9.70;;;8.20;;
65871;SDS011;52653;50.080;21.992;2023-09-19T08:52:01;11.50;;;8.80;;
65871;SDS011;52653;50.080;21.992;2023-09-19T08:54:42;11.30;;;8.70;;
65871;SDS011;52653;50.080;21.992;2023-09-19T08:57:18;11.20;;;8.80;;
65871;SDS011;52653;50.080;21.992;2023-09-19T08:59:52;10.40;;;8.60;;
65871;SDS011;52653;50.080;21.992;2023-09-19T09:02:26;9.90;;;8.30;;
65871;SDS011;52653;50.080;21.992;2023-09-19T09:04:59;10.90;;;7.90;;
65871;SDS011;52653;50.080;21.992;2023-09-19T09:07:34;10.10;;;8.20;;
65871;SDS011;52653;50.080;21.992;2023-09-19T09:10:11;11.00;;;8.00;;
65871;SDS011;52653;50.080;21.992;2023-09-19T09:12:46;10.70;;;8.10;;
65871;SDS011;52653;50.080;21.992;2023-09-19T09:15:20;10.50;;;8.50;;
65871;SDS011;52653;50.080;21.992;2023-09-19T09:17:54;8.90;;;8.00;;
65871;SDS011;52653;50.080;21.992;2023-09-19T09:20:27;10.80;;;8.80;;
65871;SDS011;52653;50.080;21.992;2023-09-19T09:23:01;9.60;;;8.40;;
65871;SDS011;52653;50.080;21.992;2023-09-19T09:25:48;9.90;;;8.10;;
65871;SDS011;52653;50.080;21.992;2023-09-19T09:28:27;9.40;;;8.20;;
65871;SDS011;52653;50.080;21.992;2023-09-19T09:31:01;10.70;;;8.00;;
65871;SDS011;52653;50.080;21.992;2023-09-19T09:33:39;10.20;;;8.10;;
65871;SDS011;52653;50.080;21.992;2023-09-19T09:36:13;9.10;;;7.90;;
65871;SDS011;52653;50.080;21.992;2023-09-19T09:38:48;9.60;;;8.00;;
65871;SDS011;52653;50.080;21.992;2023-09-19T09:41:35;10.00;;;7.70;;
65871;SDS011;52653;50.080;21.992;2023-09-19T09:44:15;11.90;;;7.90;;
65871;SDS011;52653;50.080;21.992;2023-09-19T09:46:49;10.60;;;8.00;;
65871;SDS011;52653;50.080;21.992;2023-09-19T09:49:47;11.40;;;8.50;;
65871;SDS011;52653;50.080;21.992;2023-09-19T09:52:46;9.20;;;7.70;;
65871;SDS011;52653;50.080;21.992;2023-09-19T09:55:19;9.70;;;8.50;;
65871;SDS011;52653;50.080;21.992;2023-09-19T09:57:54;9.70;;;7.60;;
65871;SDS011;52653;50.080;21.992;2023-09-19T10:00:56;8.60;;;7.70;;
65871;SDS011;52653;50.080;21.992;2023-09-19T10:03:38;10.20;;;8.00;;
65871;SDS011;52653;50.080;21.992;2023-09-19T10:06:19;9.90;;;8.40;;
65871;SDS011;52653;50.080;21.992;2023-09-19T10:09:04;9.30;;;8.20;;
65871;SDS011;52653;50.080;21.992;2023-09-19T10:11:47;9.60;;;8.20;;
65871;SDS011;52653;50.080;21.992;2023-09-19T10:14:33;9.60;;;8.10;;
65871;SDS011;52653;50.080;21.992;2023-09-19T10:17:09;11.50;;;8.50;;
65871;SDS011;52653;50.080;21.992;2023-09-19T10:19:45;11.50;;;8.90;;
65871;SDS011;52653;50.080;21.992;2023-09-19T10:22:28;10.50;;;8.30;;
65871;SDS011;52653;50.080;21.992;2023-09-19T10:25:03;11.20;;;8.60;;
65871;SDS011;52653;50.080;21.992;2023-09-19T10:27:38;10.90;;;8.20;;
65871;SDS011;52653;50.080;21.992;2023-09-19T10:30:13;10.80;;;7.70;;
65871;SDS011;52653;50.080;21.992;2023-09-19T10:32:49;12.10;;;8.60;;
65871;SDS011;52653;50.080;21.992;2023-09-19T10:35:31;9.80;;;8.10;;
65871;SDS011;52653;50.080;21.992;2023-09-19T10:38:10;10.20;;;7.80;;
65871;SDS011;52653;50.080;21.992;2023-09-19T10:40:50;9.10;;;7.60;;
65871;SDS011;52653;50.080;21.992;2023-09-19T10:43:25;11.00;;;7.80;;
65871;SDS011;52653;50.080;21.992;2023-09-19T10:46:07;11.00;;;8.00;;
65871;SDS011;52653;50.080;21.992;2023-09-19T10:48:41;10.00;;;7.50;;
65871;SDS011;52653;50.080;21.992;2023-09-19T10:51:18;9.20;;;7.60;;
65871;SDS011;52653;50.080;21.992;2023-09-19T10:53:55;9.70;;;7.30;;
65871;SDS011;52653;50.080;21.992;2023-09-19T10:56:35;8.30;;;6.70;;
65871;SDS011;52653;50.080;21.992;2023-09-19T10:59:11;8.30;;;6.40;;
65871;SDS011;52653;50.080;21.992;2023-09-19T11:01:51;8.50;;;6.30;;
65871;SDS011;52653;50.080;21.992;2023-09-19T11:04:30;9.20;;;6.30;;
65871;SDS011;52653;50.080;21.992;2023-09-19T11:07:05;8.60;;;5.70;;
65871;SDS011;52653;50.080;21.992;2023-09-19T11:09:45;8.50;;;5.40;;
65871;SDS011;52653;50.080;21.992;2023-09-19T11:18:52;6.70;;;4.70;;
65871;SDS011;52653;50.080;21.992;2023-09-19T11:21:42;8.90;;;5.40;;
65871;SDS011;52653;50.080;21.992;2023-09-19T11:24:34;7.50;;;5.30;;
65871;SDS011;52653;50.080;21.992;2023-09-19T11:27:12;7.00;;;4.60;;
65871;SDS011;52653;50.080;21.992;2023-09-19T11:29:49;7.50;;;4.70;;
65871;SDS011;52653;50.080;21.992;2023-09-19T11:33:18;5.50;;;3.80;;
65871;SDS011;52653;50.080;21.992;2023-09-19T11:36:03;6.70;;;3.90;;
65871;SDS011;52653;50.080;21.992;2023-09-19T11:41:38;5.40;;;3.60;;
65871;SDS011;52653;50.080;21.992;2023-09-19T11:44:33;6.10;;;4.20;;
65871;SDS011;52653;50.080;21.992;2023-09-19T11:47:11;5.20;;;3.60;;
65871;SDS011;52653;50.080;21.992;2023-09-19T11:49:45;6.20;;;3.50;;
65871;SDS011;52653;50.080;21.992;2023-09-19T11:52:22;4.80;;;3.30;;
65871;SDS011;52653;50.080;21.992;2023-09-19T11:54:56;5.30;;;3.60;;
65871;SDS011;52653;50.080;21.992;2023-09-19T11:57:33;6.00;;;3.30;;
65871;SDS011;52653;50.080;21.992;2023-09-19T12:00:10;4.40;;;3.60;;
65871;SDS011;52653;50.080;21.992;2023-09-19T12:02:50;6.30;;;3.70;;
65871;SDS011;52653;50.080;21.992;2023-09-19T12:05:30;6.30;;;3.70;;
65871;SDS011;52653;50.080;21.992;2023-09-19T12:08:04;5.30;;;3.90;;
65871;SDS011;52653;50.080;21.992;2023-09-19T12:10:46;4.90;;;3.60;;
65871;SDS011;52653;50.080;21.992;2023-09-19T12:13:19;6.60;;;4.20;;
65871;SDS011;52653;50.080;21.992;2023-09-19T12:15:52;4.90;;;3.80;;
65871;SDS011;52653;50.080;21.992;2023-09-19T12:18:33;5.80;;;4.00;;
65871;SDS011;52653;50.080;21.992;2023-09-19T12:21:09;6.20;;;4.30;;
65871;SDS011;52653;50.080;21.992;2023-09-19T12:24:00;5.40;;;3.40;;
65871;SDS011;52653;50.080;21.992;2023-09-19T12:26:42;4.70;;;3.50;;
65871;SDS011;52653;50.080;21.992;2023-09-19T12:29:16;6.30;;;3.70;;
65871;SDS011;52653;50.080;21.992;2023-09-19T12:31:53;4.30;;;3.10;;
65871;SDS011;52653;50.080;21.992;2023-09-19T12:37:04;4.20;;;2.80;;
65871;SDS011;52653;50.080;21.992;2023-09-19T12:39:43;8.80;;;3.50;;
65871;SDS011;52653;50.080;21.992;2023-09-19T12:42:19;4.80;;;3.40;;
65871;SDS011;52653;50.080;21.992;2023-09-19T12:44:52;5.60;;;3.90;;
65871;SDS011;52653;50.080;21.992;2023-09-19T12:47:28;6.00;;;4.40;;
65871;SDS011;52653;50.080;21.992;2023-09-19T12:50:07;7.00;;;4.80;;
65871;SDS011;52653;50.080;21.992;2023-09-19T12:52:45;7.40;;;4.90;;
65871;SDS011;52653;50.080;21.992;2023-09-19T12:55:24;7.10;;;5.50;;
65871;SDS011;52653;50.080;21.992;2023-09-19T12:58:11;7.30;;;6.00;;
65871;SDS011;52653;50.080;21.992;2023-09-19T13:00:51;8.70;;;5.50;;
65871;SDS011;52653;50.080;21.992;2023-09-19T13:03:27;9.60;;;6.50;;
65871;SDS011;52653;50.080;21.992;2023-09-19T13:06:06;9.20;;;6.80;;
65871;SDS011;52653;50.080;21.992;2023-09-19T13:08:42;9.50;;;7.10;;
65871;SDS011;52653;50.080;21.992;2023-09-19T13:11:23;10.20;;;7.00;;
65871;SDS011;52653;50.080;21.992;2023-09-19T13:14:16;8.10;;;6.60;;
65871;SDS011;52653;50.080;21.992;2023-09-19T13:17:00;9.10;;;6.90;;
65871;SDS011;52653;50.080;21.992;2023-09-19T13:19:37;9.80;;;6.10;;
65871;SDS011;52653;50.080;21.992;2023-09-19T13:22:37;8.20;;;6.40;;
65871;SDS011;52653;50.080;21.992;2023-09-19T13:25:14;8.30;;;6.10;;
65871;SDS011;52653;50.080;21.992;2023-09-19T13:27:58;8.10;;;6.10;;
65871;SDS011;52653;50.080;21.992;2023-09-19T13:30:36;7.30;;;5.90;;
65871;SDS011;52653;50.080;21.992;2023-09-19T13:33:12;7.00;;;5.90;;
65871;SDS011;52653;50.080;21.992;2023-09-19T13:35:50;10.10;;;6.10;;
65871;SDS011;52653;50.080;21.992;2023-09-19T13:38:25;8.90;;;5.80;;
65871;SDS011;52653;50.080;21.992;2023-09-19T13:40:58;7.90;;;5.40;;
65871;SDS011;52653;50.080;21.992;2023-09-19T13:43:31;7.80;;;5.50;;
65871;SDS011;52653;50.080;21.992;2023-09-19T13:46:04;8.20;;;5.40;;
65871;SDS011;52653;50.080;21.992;2023-09-19T13:48:41;9.30;;;5.70;;
65871;SDS011;52653;50.080;21.992;2023-09-19T13:51:26;9.20;;;5.90;;
65871;SDS011;52653;50.080;21.992;2023-09-19T13:53:59;7.90;;;5.80;;
65871;SDS011;52653;50.080;21.992;2023-09-19T13:56:32;9.60;;;5.90;;
65871;SDS011;52653;50.080;21.992;2023-09-19T13:59:06;7.80;;;5.50;;
65871;SDS011;52653;50.080;21.992;2023-09-19T14:01:50;8.30;;;5.90;;
65871;SDS011;52653;50.080;21.992;2023-09-19T14:04:23;8.30;;;6.10;;
65871;SDS011;52653;50.080;21.992;2023-09-19T14:07:01;10.10;;;6.90;;
65871;SDS011;52653;50.080;21.992;2023-09-19T14:09:34;9.20;;;6.40;;
65871;SDS011;52653;50.080;21.992;2023-09-19T14:12:08;8.90;;;6.70;;
65871;SDS011;52653;50.080;21.992;2023-09-19T14:14:41;7.80;;;6.30;;
65871;SDS011;52653;50.080;21.992;2023-09-19T14:17:15;10.30;;;6.60;;
65871;SDS011;52653;50.080;21.992;2023-09-19T14:19:50;11.30;;;7.00;;
65871;SDS011;52653;50.080;21.992;2023-09-19T14:22:23;11.50;;;6.80;;
65871;SDS011;52653;50.080;21.992;2023-09-19T14:24:58;11.60;;;7.30;;
65871;SDS011;52653;50.080;21.992;2023-09-19T14:27:31;9.50;;;7.30;;
65871;SDS011;52653;50.080;21.992;2023-09-19T14:30:04;10.10;;;6.70;;
65871;SDS011;52653;50.080;21.992;2023-09-19T14:32:39;11.50;;;8.50;;
65871;SDS011;52653;50.080;21.992;2023-09-19T14:35:13;9.50;;;7.50;;
65871;SDS011;52653;50.080;21.992;2023-09-19T14:37:49;9.70;;;7.70;;
65871;SDS011;52653;50.080;21.992;2023-09-19T14:40:24;12.00;;;8.20;;
65871;SDS011;52653;50.080;21.992;2023-09-19T14:42:57;12.40;;;7.80;;
65871;SDS011;52653;50.080;21.992;2023-09-19T14:45:37;11.90;;;8.40;;
65871;SDS011;52653;50.080;21.992;2023-09-19T14:48:12;11.60;;;8.60;;
65871;SDS011;52653;50.080;21.992;2023-09-19T14:50:45;10.60;;;8.20;;
65871;SDS011;52653;50.080;21.992;2023-09-19T14:53:23;11.10;;;8.20;;
65871;SDS011;52653;50.080;21.992;2023-09-19T14:55:59;10.90;;;8.10;;
65871;SDS011;52653;50.080;21.992;2023-09-19T14:58:38;12.50;;;8.10;;
65871;SDS011;52653;50.080;21.992;2023-09-19T15:01:18;11.70;;;8.50;;
65871;SDS011;52653;50.080;21.992;2023-09-19T15:04:11;11.80;;;8.40;;
65871;SDS011;52653;50.080;21.992;2023-09-19T15:06:53;10.00;;;8.20;;
65871;SDS011;52653;50.080;21.992;2023-09-19T15:09:33;10.20;;;8.10;;
65871;SDS011;52653;50.080;21.992;2023-09-19T15:12:06;13.00;;;9.00;;
65871;SDS011;52653;50.080;21.992;2023-09-19T15:14:40;11.40;;;9.00;;
65871;SDS011;52653;50.080;21.992;2023-09-19T15:17:18;12.40;;;8.40;;
65871;SDS011;52653;50.080;21.992;2023-09-19T15:19:55;12.40;;;8.20;;
65871;SDS011;52653;50.080;21.992;2023-09-19T15:22:27;12.00;;;8.20;;
65871;SDS011;52653;50.080;21.992;2023-09-19T15:25:00;13.70;;;9.10;;
65871;SDS011;52653;50.080;21.992;2023-09-19T15:27:34;12.00;;;8.80;;
65871;SDS011;52653;50.080;21.992;2023-09-19T15:30:10;12.50;;;9.20;;
65871;SDS011;52653;50.080;21.992;2023-09-19T15:32:45;14.60;;;8.90;;
65871;SDS011;52653;50.080;21.992;2023-09-19T15:35:18;13.40;;;8.70;;
65871;SDS011;52653;50.080;21.992;2023-09-19T15:37:57;15.00;;;9.20;;